createdAt,value
2023-10-10T00:00:02.282Z,16.86
2023-10-10T00:01:02.310Z,16.89
2023-10-10T00:02:02.297Z,16.83
2023-10-10T00:03:02.331Z,16.93
2023-10-10T00:04:02.305Z,16.94
2023-10-10T00:05:02.308Z,17.04
2023-10-10T00:06:02.271Z,16.98
2023-10-10T00:07:02.274Z,16.98
2023-10-10T00:08:02.280Z,16.97
2023-10-10T00:09:02.283Z,16.85
2023-10-10T00:10:02.276Z,16.83
2023-10-10T00:11:02.289Z,16.83
2023-10-10T00:12:02.266Z,16.78
2023-10-10T00:13:02.325Z,16.79
2023-10-10T00:14:02.276Z,16.71
2023-10-10T00:15:02.258Z,16.76
2023-10-10T00:16:02.293Z,16.63
2023-10-10T00:17:02.276Z,16.60
2023-10-10T00:18:02.280Z,16.64
2023-10-10T00:19:02.252Z,16.60
2023-10-10T00:20:02.358Z,16.53
2023-10-10T00:21:02.295Z,16.58
2023-10-10T00:22:02.247Z,16.63
2023-10-10T00:23:02.300Z,16.52
2023-10-10T00:24:02.245Z,16.50
2023-10-10T00:25:02.255Z,16.45
2023-10-10T00:26:02.277Z,16.48
2023-10-10T00:27:02.251Z,16.42
2023-10-10T00:28:02.242Z,16.48
2023-10-10T00:29:02.261Z,16.35
2023-10-10T00:30:02.235Z,16.39
2023-10-10T00:31:02.299Z,16.39
2023-10-10T00:32:02.262Z,16.46
2023-10-10T00:33:02.268Z,16.43
2023-10-10T00:34:02.230Z,16.38
2023-10-10T00:35:02.270Z,16.39
2023-10-10T00:36:02.232Z,16.39
2023-10-10T00:37:02.253Z,16.41
2023-10-10T00:38:02.240Z,16.34
2023-10-10T00:39:02.226Z,16.39
2023-10-10T00:40:02.223Z,16.33
2023-10-10T00:41:02.267Z,16.35
2023-10-10T00:42:02.218Z,16.30
2023-10-10T00:43:02.227Z,16.43
2023-10-10T00:44:02.250Z,16.43
2023-10-10T00:45:02.224Z,16.33
2023-10-10T00:46:02.215Z,16.20
2023-10-10T00:47:02.263Z,16.24
2023-10-10T00:48:02.263Z,16.25
2023-10-10T00:49:02.212Z,16.25
2023-10-10T00:50:02.245Z,16.25
2023-10-10T00:51:02.208Z,16.38
2023-10-10T00:52:02.260Z,16.34
2023-10-10T00:53:02.295Z,16.39
2023-10-10T00:54:02.210Z,16.35
2023-10-10T00:55:02.537Z,16.38
2023-10-10T00:56:02.247Z,16.41
2023-10-10T00:57:02.203Z,16.49
2023-10-10T00:58:02.209Z,16.39
2023-10-10T00:59:02.229Z,16.39
2023-10-10T01:00:02.193Z,16.48
2023-10-10T01:01:02.238Z,16.48
2023-10-10T01:02:02.381Z,16.52
2023-10-10T01:03:02.320Z,16.56
2023-10-10T01:04:02.261Z,16.52
2023-10-10T01:05:02.298Z,16.50
2023-10-10T01:06:02.189Z,16.38
2023-10-10T01:07:02.190Z,16.52
2023-10-10T01:08:02.207Z,16.61
2023-10-10T01:09:02.210Z,16.70
2023-10-10T01:10:02.181Z,16.60
2023-10-10T01:11:02.220Z,16.66
2023-10-10T01:12:02.173Z,16.66
2023-10-10T01:13:02.179Z,16.71
2023-10-10T01:14:02.203Z,16.66
2023-10-10T01:15:02.184Z,16.70
2023-10-10T01:16:02.182Z,16.76
2023-10-10T01:17:02.235Z,16.67
2023-10-10T01:18:02.276Z,16.67
2023-10-10T01:19:02.191Z,16.75
2023-10-10T01:20:02.206Z,16.71
2023-10-10T01:21:02.167Z,16.76
2023-10-10T01:22:02.171Z,16.78
2023-10-10T01:23:02.191Z,16.76
2023-10-10T01:24:02.164Z,16.73
2023-10-10T01:25:02.185Z,16.76
2023-10-10T01:26:02.203Z,16.79
2023-10-10T01:27:02.161Z,16.67
2023-10-10T01:28:02.162Z,16.73
2023-10-10T01:29:02.183Z,16.81
2023-10-10T01:30:02.156Z,16.75
2023-10-10T01:31:02.175Z,16.79
2023-10-10T01:32:02.203Z,16.89
2023-10-10T01:33:02.223Z,16.88
2023-10-10T01:34:02.150Z,16.79
2023-10-10T01:35:02.181Z,16.86
2023-10-10T01:36:02.141Z,16.91
2023-10-10T01:37:02.152Z,16.93
2023-10-10T01:38:02.195Z,16.85
2023-10-10T01:39:02.144Z,16.89
2023-10-10T01:40:02.137Z,16.83
2023-10-10T01:41:02.194Z,16.86
2023-10-10T01:42:02.151Z,16.81
2023-10-10T01:43:02.141Z,16.70
2023-10-10T01:44:02.192Z,16.68
2023-10-10T01:45:02.226Z,16.79
2023-10-10T01:46:02.234Z,16.82
2023-10-10T01:47:02.191Z,16.78
2023-10-10T01:48:02.168Z,16.78
2023-10-10T01:49:02.129Z,16.83
2023-10-10T01:50:02.200Z,16.88
2023-10-10T01:51:02.126Z,16.88
2023-10-10T01:52:02.152Z,16.85
2023-10-10T01:53:02.193Z,16.86
2023-10-10T01:54:02.128Z,16.89
2023-10-10T01:55:02.129Z,16.89
2023-10-10T01:56:02.147Z,16.89
2023-10-10T01:57:02.149Z,16.86
2023-10-10T01:58:02.118Z,16.96
2023-10-10T01:59:02.169Z,16.89
2023-10-10T02:00:02.120Z,16.91
2023-10-10T02:01:02.153Z,17.01
2023-10-10T02:02:02.207Z,17.04
2023-10-10T02:03:02.242Z,17.07
2023-10-10T02:04:02.139Z,17.14
2023-10-10T02:05:02.125Z,17.08
2023-10-10T02:06:02.164Z,17.08
2023-10-10T02:07:02.107Z,17.16
2023-10-10T02:08:02.173Z,17.21
2023-10-10T02:09:02.105Z,17.15
2023-10-10T02:10:02.115Z,17.31
2023-10-10T02:11:02.194Z,17.18
2023-10-10T02:12:02.116Z,17.34
2023-10-10T02:13:02.134Z,17.33
2023-10-10T02:14:02.148Z,17.30
2023-10-10T02:15:02.096Z,17.40
2023-10-10T02:16:02.110Z,17.43
2023-10-10T02:17:02.154Z,17.56
2023-10-10T02:18:02.154Z,17.52
2023-10-10T02:19:02.089Z,17.56
2023-10-10T02:20:02.171Z,17.46
2023-10-10T02:21:02.413Z,17.54
2023-10-10T02:22:02.093Z,17.55
2023-10-10T02:23:02.144Z,17.44
2023-10-10T02:24:02.088Z,17.49
2023-10-10T02:25:02.086Z,17.41
2023-10-10T02:26:02.112Z,17.37
2023-10-10T02:27:02.090Z,17.44
2023-10-10T02:28:44.661Z,17.31
2023-10-10T02:29:44.628Z,17.41
2023-10-10T02:30:44.684Z,17.38
2023-10-10T02:31:44.625Z,17.31
2023-10-10T02:32:44.655Z,17.36
2023-10-10T02:33:44.625Z,17.40
2023-10-10T02:34:44.628Z,17.36
2023-10-10T02:35:44.621Z,17.38
2023-10-10T02:36:44.628Z,17.37
2023-10-10T02:37:44.619Z,17.46
2023-10-10T02:38:44.614Z,17.46
2023-10-10T02:39:44.615Z,17.56
2023-10-10T02:40:44.619Z,17.49
2023-10-10T02:41:44.616Z,17.48
2023-10-10T02:42:44.614Z,17.52
2023-10-10T02:43:44.611Z,17.52
2023-10-10T02:44:44.630Z,17.46
2023-10-10T02:45:44.610Z,17.46
2023-10-10T02:46:44.623Z,17.52
2023-10-10T02:47:44.655Z,17.55
2023-10-10T02:48:44.607Z,17.51
2023-10-10T02:49:44.603Z,17.56
2023-10-10T02:50:44.607Z,17.55
2023-10-10T02:51:44.846Z,17.51
2023-10-10T02:52:44.606Z,17.55
2023-10-10T02:53:44.598Z,17.55
2023-10-10T02:54:44.655Z,17.74
2023-10-10T02:55:44.592Z,17.54
2023-10-10T02:56:44.920Z,17.55
2023-10-10T02:57:44.592Z,17.58
2023-10-10T02:58:44.600Z,17.58
2023-10-10T02:59:44.599Z,17.54
2023-10-10T03:00:44.657Z,17.54
2023-10-10T03:01:44.616Z,17.54
2023-10-10T03:02:44.655Z,17.54
2023-10-10T03:03:44.725Z,17.56
2023-10-10T03:04:44.588Z,17.56
2023-10-10T03:05:44.632Z,17.40
2023-10-10T03:06:44.588Z,17.43
2023-10-10T03:07:44.585Z,17.51
2023-10-10T03:08:44.595Z,17.44
2023-10-10T03:09:44.579Z,17.49
2023-10-10T03:10:44.584Z,17.43
2023-10-10T03:11:44.581Z,17.43
2023-10-10T03:12:44.594Z,17.44
2023-10-10T03:13:44.576Z,17.49
2023-10-10T03:14:44.631Z,17.48
2023-10-10T03:15:44.572Z,17.37
2023-10-10T03:16:44.673Z,17.36
2023-10-10T03:17:44.637Z,17.30
2023-10-10T03:18:44.573Z,17.21
2023-10-10T03:19:44.576Z,17.21
2023-10-10T03:20:44.578Z,17.22
2023-10-10T03:21:44.604Z,17.21
2023-10-10T03:22:44.569Z,17.19
2023-10-10T03:23:44.584Z,17.15
2023-10-10T03:24:44.565Z,17.19
2023-10-10T03:25:44.880Z,17.18
2023-10-10T03:26:44.562Z,17.23
2023-10-10T03:27:44.564Z,17.19
2023-10-10T03:28:44.566Z,17.21
2023-10-10T03:29:44.560Z,17.34
2023-10-10T03:30:44.558Z,17.21
2023-10-10T03:31:44.556Z,17.30
2023-10-10T03:32:44.687Z,17.36
2023-10-10T03:33:44.684Z,17.41
2023-10-10T03:34:44.563Z,17.30
2023-10-10T03:35:44.548Z,17.38
2023-10-10T03:36:44.550Z,17.41
2023-10-10T03:37:44.563Z,17.38
2023-10-10T03:38:44.566Z,17.43
2023-10-10T03:39:44.569Z,17.37
2023-10-10T03:40:44.549Z,17.40
2023-10-10T03:41:44.559Z,17.33
2023-10-10T03:42:44.554Z,17.33
2023-10-10T03:43:44.544Z,17.37
2023-10-10T03:44:44.604Z,17.41
2023-10-10T03:45:44.629Z,17.37
2023-10-10T03:46:44.540Z,17.40
2023-10-10T03:47:44.635Z,17.46
2023-10-10T03:48:44.583Z,17.41
2023-10-10T03:49:44.548Z,17.46
2023-10-10T03:50:44.591Z,17.56
2023-10-10T03:51:44.530Z,17.55
2023-10-10T03:52:44.533Z,17.55
2023-10-10T03:53:44.530Z,17.51
2023-10-10T03:54:44.538Z,17.56
2023-10-10T03:55:44.541Z,17.54
2023-10-10T03:56:44.576Z,17.51
2023-10-10T03:57:44.526Z,17.43
2023-10-10T03:58:44.534Z,17.46
2023-10-10T03:59:44.631Z,17.44
2023-10-10T04:00:44.526Z,17.55
2023-10-10T04:01:44.589Z,17.54
2023-10-10T04:02:44.638Z,17.51
2023-10-10T04:03:44.580Z,17.56
2023-10-10T04:04:44.549Z,17.52
2023-10-10T04:05:44.537Z,17.56
2023-10-10T04:06:44.520Z,17.63
2023-10-10T04:07:44.521Z,17.54
2023-10-10T04:08:44.589Z,17.62
2023-10-10T04:09:44.516Z,17.66
2023-10-10T04:10:44.521Z,17.58
2023-10-10T04:11:44.509Z,17.71
2023-10-10T04:12:44.513Z,17.62
2023-10-10T04:13:44.509Z,17.63
2023-10-10T04:14:44.649Z,17.68
2023-10-10T04:15:44.543Z,17.72
2023-10-10T04:16:44.520Z,17.78
2023-10-10T04:17:44.595Z,17.64
2023-10-10T04:18:44.511Z,17.75
2023-10-10T04:19:44.848Z,17.68
2023-10-10T04:20:44.586Z,17.74
2023-10-10T04:21:44.883Z,17.70
2023-10-10T04:22:44.516Z,17.77
2023-10-10T04:23:44.527Z,17.71
2023-10-10T04:24:44.500Z,17.75
2023-10-10T04:25:44.502Z,17.79
2023-10-10T04:26:44.503Z,17.71
2023-10-10T04:27:44.500Z,17.79
2023-10-10T04:28:44.495Z,17.84
2023-10-10T04:29:44.493Z,17.81
2023-10-10T04:30:44.489Z,17.72
2023-10-10T04:31:44.537Z,17.70
2023-10-10T04:32:44.550Z,17.68
2023-10-10T04:33:44.484Z,17.56
2023-10-10T04:34:44.485Z,17.52
2023-10-10T04:35:44.498Z,17.54
2023-10-10T04:36:44.516Z,17.58
2023-10-10T04:37:44.488Z,17.56
2023-10-10T04:38:44.530Z,17.48
2023-10-10T04:39:44.483Z,17.41
2023-10-10T04:40:44.488Z,17.36
2023-10-10T04:41:44.497Z,17.34
2023-10-10T04:42:44.476Z,17.43
2023-10-10T04:43:44.475Z,17.44
2023-10-10T04:44:44.486Z,17.38
2023-10-10T04:45:44.488Z,17.37
2023-10-10T04:46:44.484Z,17.44
2023-10-10T04:47:44.680Z,17.38
2023-10-10T04:48:44.501Z,17.43
2023-10-10T04:49:44.470Z,17.43
2023-10-10T04:50:44.498Z,17.46
2023-10-10T04:51:44.467Z,17.48
2023-10-10T04:52:44.498Z,17.43
2023-10-10T04:53:44.464Z,17.43
2023-10-10T04:54:44.466Z,17.40
2023-10-10T04:55:44.460Z,17.54
2023-10-10T04:56:44.501Z,17.48
2023-10-10T04:57:44.461Z,17.41
2023-10-10T04:58:44.813Z,17.34
2023-10-10T04:59:44.536Z,17.37
2023-10-10T05:00:44.461Z,17.33
2023-10-10T05:01:44.564Z,17.30
2023-10-10T05:02:44.565Z,17.28
2023-10-10T05:03:44.537Z,17.23
2023-10-10T05:04:44.451Z,17.36
2023-10-10T05:05:44.550Z,17.37
2023-10-10T05:06:44.466Z,17.44
2023-10-10T05:07:44.467Z,17.41
2023-10-10T05:08:44.616Z,17.37
2023-10-10T05:09:44.527Z,17.26
2023-10-10T05:10:44.448Z,17.48
2023-10-10T05:11:44.474Z,17.44
2023-10-10T05:12:44.460Z,17.46
2023-10-10T05:13:44.444Z,17.46
2023-10-10T05:14:44.492Z,17.52
2023-10-10T05:15:44.461Z,17.55
2023-10-10T05:16:44.644Z,17.55
2023-10-10T05:17:44.546Z,17.55
2023-10-10T05:18:44.439Z,17.41
2023-10-10T05:19:44.432Z,17.41
2023-10-10T05:20:44.450Z,17.48
2023-10-10T05:21:44.430Z,17.43
2023-10-10T05:22:44.488Z,17.38
2023-10-10T05:23:44.489Z,17.30
2023-10-10T05:24:44.731Z,17.33
2023-10-10T05:25:44.419Z,17.33
2023-10-10T05:26:44.426Z,17.37
2023-10-10T05:27:44.419Z,17.36
2023-10-10T05:28:44.424Z,17.34
2023-10-10T05:29:44.582Z,17.40
2023-10-10T05:30:44.456Z,17.52
2023-10-10T05:31:44.429Z,17.52
2023-10-10T05:32:44.465Z,17.51
2023-10-10T05:33:44.420Z,17.54
2023-10-10T05:34:44.423Z,17.56
2023-10-10T05:35:44.459Z,17.63
2023-10-10T05:36:44.417Z,17.59
2023-10-10T05:37:44.413Z,17.71
2023-10-10T05:38:44.445Z,17.66
2023-10-10T05:39:44.412Z,17.68
2023-10-10T05:40:44.461Z,17.63
2023-10-10T05:41:44.456Z,17.66
2023-10-10T05:42:44.422Z,17.70
2023-10-10T05:43:44.412Z,17.64
2023-10-10T05:44:44.435Z,17.77
2023-10-10T05:45:44.455Z,17.75
2023-10-10T05:46:44.408Z,17.79
2023-10-10T05:47:44.475Z,17.81
2023-10-10T05:48:44.401Z,17.78
2023-10-10T05:49:44.403Z,17.75
2023-10-10T05:50:44.510Z,17.74
2023-10-10T05:51:44.397Z,17.71
2023-10-10T05:52:44.400Z,17.78
2023-10-10T05:53:44.417Z,17.62
2023-10-10T05:54:44.398Z,17.66
2023-10-10T05:55:44.394Z,17.62
2023-10-10T05:56:44.545Z,17.52
2023-10-10T05:57:44.393Z,17.70
2023-10-10T05:58:44.437Z,17.55
2023-10-10T05:59:44.411Z,17.54
2023-10-10T06:00:44.393Z,17.55
2023-10-10T06:01:44.597Z,17.52
2023-10-10T06:02:44.501Z,17.55
2023-10-10T06:03:44.424Z,17.55
2023-10-10T06:04:44.386Z,17.51
2023-10-10T08:03:13.332Z,17.99
2023-10-10T08:04:14.976Z,18.10
2023-10-10T08:05:13.208Z,18.05
2023-10-10T08:06:13.187Z,18.20
2023-10-10T08:07:13.189Z,18.35
2023-10-10T08:08:13.214Z,18.36
2023-10-10T08:09:13.201Z,18.41
2023-10-10T08:10:13.208Z,18.52
2023-10-10T08:11:13.198Z,18.50
2023-10-10T08:12:13.170Z,18.50
2023-10-10T08:13:13.175Z,18.63
2023-10-10T08:14:13.187Z,18.70
2023-10-10T08:15:13.360Z,18.75
2023-10-10T08:16:13.161Z,18.75
2023-10-10T08:17:13.228Z,18.76
2023-10-10T08:18:13.193Z,18.76
2023-10-10T08:19:13.174Z,18.85
2023-10-10T08:20:13.168Z,18.82
2023-10-10T08:21:13.143Z,18.90
2023-10-10T08:22:13.154Z,18.84
2023-10-10T08:23:13.161Z,18.98
2023-10-10T08:24:13.186Z,19.08
2023-10-10T08:25:13.139Z,19.13
2023-10-10T08:26:13.245Z,19.19
2023-10-10T08:27:13.162Z,19.40
2023-10-10T08:28:13.143Z,19.37
2023-10-10T08:29:13.208Z,19.43
2023-10-10T08:30:13.134Z,19.50
2023-10-10T08:31:13.199Z,19.61
2023-10-10T08:32:13.143Z,19.69
2023-10-10T08:33:13.249Z,19.92
2023-10-10T08:34:13.139Z,20.14
2023-10-10T08:35:13.461Z,20.16
2023-10-10T08:36:13.133Z,20.42
2023-10-10T08:37:13.132Z,20.58
2023-10-10T08:38:13.156Z,20.74
2023-10-10T08:39:13.134Z,20.88
2023-10-10T08:40:13.142Z,20.87
2023-10-10T08:41:13.140Z,21.07
2023-10-10T08:42:13.133Z,21.32
2023-10-10T08:43:13.132Z,21.68
2023-10-10T08:44:13.182Z,21.99
2023-10-10T08:45:13.124Z,22.00
2023-10-10T08:46:13.186Z,22.09
2023-10-10T08:47:13.143Z,22.06
2023-10-10T08:48:13.212Z,22.03
2023-10-10T08:49:13.124Z,22.15
2023-10-10T08:50:13.174Z,22.00
2023-10-10T08:51:13.147Z,22.03
2023-10-10T08:52:13.135Z,22.20
2023-10-10T08:53:13.191Z,22.40
2023-10-10T08:54:13.259Z,22.52
2023-10-10T08:55:13.125Z,22.62
2023-10-10T08:56:13.173Z,22.57
2023-10-10T08:57:13.149Z,22.62
2023-10-10T08:58:13.143Z,22.51
2023-10-10T08:59:13.230Z,22.55
2023-10-10T09:00:13.175Z,22.55
2023-10-10T09:01:13.157Z,22.42
2023-10-10T09:02:13.156Z,22.42
2023-10-10T09:03:13.226Z,22.40
2023-10-10T09:04:13.233Z,22.52
2023-10-10T09:05:13.165Z,22.51
2023-10-10T09:06:13.131Z,22.55
2023-10-10T09:07:13.164Z,22.51
2023-10-10T09:08:13.156Z,22.52
2023-10-10T09:09:13.127Z,22.30
2023-10-10T09:10:13.135Z,22.06
2023-10-10T09:11:13.147Z,22.20
2023-10-10T09:12:56.144Z,22.36
2023-10-10T09:14:38.784Z,22.30
2023-10-10T09:15:38.693Z,22.28
2023-10-10T09:16:38.739Z,22.33
2023-10-10T09:17:41.054Z,22.36
2023-10-10T09:18:39.039Z,22.31
2023-10-10T09:19:38.696Z,22.46
2023-10-10T09:20:38.745Z,22.39
2023-10-10T09:21:38.698Z,22.39
2023-10-10T09:22:38.730Z,22.57
2023-10-10T09:23:38.776Z,22.76
2023-10-10T09:24:38.715Z,23.02
2023-10-10T09:25:38.703Z,23.50
2023-10-10T09:26:38.755Z,24.13
2023-10-10T09:27:38.706Z,24.80
2023-10-10T09:28:38.703Z,25.42
2023-10-10T09:29:38.754Z,25.94
2023-10-10T09:30:38.712Z,25.91
2023-10-10T09:31:41.279Z,26.06
2023-10-10T09:32:38.758Z,25.95
2023-10-10T09:33:38.770Z,25.77
2023-10-10T09:34:38.704Z,25.38
2023-10-10T09:35:38.733Z,25.25
2023-10-10T09:36:38.709Z,25.30
2023-10-10T09:37:38.736Z,25.30
2023-10-10T09:38:38.799Z,25.24
2023-10-10T09:39:38.786Z,25.54
2023-10-10T09:40:38.718Z,25.60
2023-10-10T09:41:38.828Z,25.64
2023-10-10T09:42:38.716Z,25.90
2023-10-10T09:43:38.720Z,26.07
2023-10-10T09:44:38.744Z,26.07
2023-10-10T09:45:38.731Z,25.97
2023-10-10T09:46:38.738Z,26.10
2023-10-10T09:47:38.805Z,25.92
2023-10-10T09:48:38.729Z,25.90
2023-10-10T09:49:38.736Z,25.57
2023-10-10T09:50:38.886Z,25.35
2023-10-10T09:51:38.730Z,25.24
2023-10-10T09:52:38.732Z,25.17
2023-10-10T09:53:38.828Z,25.03
2023-10-10T09:54:38.757Z,25.05
2023-10-10T09:55:38.742Z,25.10
2023-10-10T09:56:38.777Z,25.02
2023-10-10T09:57:38.740Z,25.02
2023-10-10T09:58:38.741Z,24.99
2023-10-10T09:59:38.815Z,24.99
2023-10-10T10:00:38.861Z,25.32
2023-10-10T10:01:38.761Z,25.79
2023-10-10T10:02:38.815Z,25.98
2023-10-10T10:03:38.813Z,26.21
2023-10-10T10:04:38.788Z,26.18
2023-10-10T10:05:38.782Z,26.20
2023-10-10T10:06:45.933Z,26.18
2023-10-10T10:07:38.765Z,26.28
2023-10-10T10:08:38.823Z,26.23
2023-10-10T10:09:38.786Z,26.09
2023-10-10T10:10:38.804Z,26.06
2023-10-10T10:11:38.807Z,26.12
2023-10-10T10:12:38.778Z,26.02
2023-10-10T10:13:38.780Z,25.91
2023-10-10T10:14:38.861Z,25.95
2023-10-10T10:15:38.793Z,25.94
2023-10-10T10:16:38.929Z,25.82
2023-10-10T10:17:38.837Z,25.69
2023-10-10T10:18:38.842Z,25.40
2023-10-10T10:19:38.792Z,25.36
2023-10-10T10:20:38.895Z,25.36
2023-10-10T10:21:38.799Z,25.32
2023-10-10T10:22:38.793Z,25.23
2023-10-10T10:23:38.833Z,25.15
2023-10-10T10:24:38.796Z,24.98
2023-10-10T10:25:38.805Z,24.81
2023-10-10T10:26:38.853Z,24.61
2023-10-10T10:27:38.810Z,24.60
2023-10-10T10:28:38.815Z,24.45
2023-10-10T10:29:38.822Z,24.27
2023-10-10T10:30:38.809Z,24.31
2023-10-10T10:31:41.113Z,23.97
2023-10-10T10:32:38.898Z,23.91
2023-10-10T10:33:38.840Z,23.91
2023-10-10T10:34:38.823Z,23.72
2023-10-10T10:35:38.853Z,23.55
2023-10-10T10:36:38.838Z,23.48
2023-10-10T10:37:38.828Z,23.40
2023-10-10T10:38:38.844Z,23.36
2023-10-10T10:39:38.832Z,23.40
2023-10-10T10:40:38.838Z,23.42
2023-10-10T10:41:38.916Z,23.39
2023-10-10T10:42:38.876Z,23.35
2023-10-10T10:43:38.890Z,23.28
2023-10-10T10:44:38.860Z,23.35
2023-10-10T10:45:38.842Z,23.35
2023-10-10T10:46:38.853Z,23.23
2023-10-10T10:47:38.960Z,23.35
2023-10-10T10:48:38.874Z,23.25
2023-10-10T10:49:38.840Z,23.07
2023-10-10T10:50:38.881Z,23.13
2023-10-10T10:51:38.848Z,23.22
2023-10-10T10:52:38.848Z,23.13
2023-10-10T10:53:38.892Z,23.07
2023-10-10T10:54:38.859Z,23.07
2023-10-10T10:55:38.862Z,23.12
2023-10-10T10:56:38.906Z,23.09
2023-10-10T10:57:49.672Z,23.00
2023-10-10T10:58:38.878Z,23.01
2023-10-10T10:59:38.887Z,23.04
2023-10-10T11:00:38.885Z,23.05
2023-10-10T11:01:38.915Z,23.02
2023-10-10T11:02:38.949Z,23.02
2023-10-10T11:03:38.893Z,23.10
2023-10-10T11:04:38.890Z,23.13
2023-10-10T11:05:38.902Z,23.17
2023-10-10T11:06:38.860Z,23.15
2023-10-10T11:07:38.872Z,23.15
2023-10-10T11:08:50.541Z,23.10
2023-10-10T11:09:38.874Z,23.12
2023-10-10T11:10:38.869Z,23.13
2023-10-10T11:11:38.881Z,23.00
2023-10-10T11:12:38.873Z,22.98
2023-10-10T11:13:38.867Z,23.02
2023-10-10T11:14:38.974Z,23.00
2023-10-10T11:15:38.978Z,22.94
2023-10-10T11:16:38.890Z,22.98
2023-10-10T11:17:38.927Z,22.90
2023-10-10T11:18:38.885Z,22.97
2023-10-10T11:19:38.868Z,22.91
2023-10-10T11:20:38.898Z,22.88
2023-10-10T11:21:38.874Z,22.83
2023-10-10T11:22:38.906Z,22.85
2023-10-10T11:23:38.916Z,22.79
2023-10-10T11:24:38.877Z,22.75
2023-10-10T11:25:38.877Z,22.61
2023-10-10T11:26:38.912Z,22.54
2023-10-10T11:27:38.890Z,22.55
2023-10-10T11:28:38.870Z,22.52
2023-10-10T11:29:38.941Z,22.47
2023-10-10T11:30:38.967Z,22.35
2023-10-10T11:31:38.933Z,22.27
2023-10-10T11:32:38.955Z,22.27
2023-10-10T11:33:38.901Z,22.27
2023-10-10T11:34:38.878Z,22.33
2023-10-10T11:35:38.908Z,22.30
2023-10-10T11:36:39.216Z,22.35
2023-10-10T11:37:38.886Z,22.33
2023-10-10T11:38:38.954Z,22.27
2023-10-10T11:39:38.884Z,22.27
2023-10-10T11:40:38.917Z,22.36
2023-10-10T11:41:38.958Z,22.25
2023-10-10T11:42:38.880Z,22.24
2023-10-10T11:43:38.890Z,22.14
2023-10-10T11:44:38.906Z,22.02
2023-10-10T11:45:38.977Z,21.91
2023-10-10T11:46:38.944Z,21.94
2023-10-10T11:47:39.011Z,21.90
2023-10-10T11:48:38.913Z,21.86
2023-10-10T11:49:38.890Z,21.80
2023-10-10T11:50:38.926Z,21.84
2023-10-10T11:51:38.910Z,21.86
2023-10-10T11:52:38.893Z,21.94
2023-10-10T11:53:38.904Z,21.82
2023-10-10T11:54:38.900Z,21.83
2023-10-10T11:55:38.898Z,21.86
2023-10-10T11:56:38.930Z,21.83
2023-10-10T11:57:38.899Z,21.77
2023-10-10T11:58:38.911Z,21.61
2023-10-10T11:59:38.928Z,21.69
2023-10-10T12:00:38.892Z,21.65
2023-10-10T12:01:38.940Z,21.74
2023-10-10T12:02:38.960Z,21.65
2023-10-10T12:03:38.936Z,21.67
2023-10-10T12:04:38.976Z,21.65
2023-10-10T12:05:38.939Z,21.61
2023-10-10T12:06:38.891Z,21.52
2023-10-10T12:07:38.906Z,21.49
2023-10-10T12:08:38.927Z,21.44
2023-10-10T12:09:38.895Z,21.53
2023-10-10T12:10:38.893Z,21.62
2023-10-10T12:11:38.974Z,21.62
2023-10-10T12:12:38.897Z,21.59
2023-10-10T12:13:38.899Z,21.44
2023-10-10T12:14:38.987Z,21.53
2023-10-10T12:15:38.898Z,21.42
2023-10-10T12:16:38.971Z,21.43
2023-10-10T12:17:38.961Z,21.44
2023-10-10T12:18:39.020Z,21.50
2023-10-10T12:19:38.967Z,21.46
2023-10-10T12:20:38.920Z,21.59
2023-10-10T12:21:38.902Z,21.69
2023-10-10T12:22:38.896Z,21.74
2023-10-10T12:23:38.950Z,21.83
2023-10-10T12:24:38.898Z,21.94
2023-10-10T12:25:38.901Z,22.03
2023-10-10T12:26:38.908Z,22.17
2023-10-10T12:27:38.902Z,22.35
2023-10-10T12:28:38.912Z,22.43
2023-10-10T12:29:38.923Z,22.52
2023-10-10T12:30:38.897Z,22.57
2023-10-10T12:31:38.925Z,22.60
2023-10-10T12:32:38.927Z,22.62
2023-10-10T12:33:38.956Z,22.64
2023-10-10T12:34:38.931Z,22.75
2023-10-10T12:35:38.920Z,22.79
2023-10-10T12:36:38.897Z,22.92
2023-10-10T12:37:38.899Z,23.07
2023-10-10T12:38:38.940Z,23.10
2023-10-10T12:39:38.898Z,23.05
2023-10-10T12:40:38.895Z,23.07
2023-10-10T12:41:38.947Z,23.13
2023-10-10T12:42:38.895Z,23.22
2023-10-10T12:43:38.897Z,23.20
2023-10-10T12:44:38.945Z,23.20
2023-10-10T12:45:38.924Z,23.35
2023-10-10T12:46:38.899Z,23.28
2023-10-10T12:47:38.951Z,23.25
2023-10-10T12:48:38.913Z,23.38
2023-10-10T12:49:38.903Z,23.36
2023-10-10T12:50:38.961Z,23.36
2023-10-10T12:51:38.924Z,23.32
2023-10-10T12:52:38.905Z,23.47
2023-10-10T12:53:38.925Z,23.33
2023-10-10T12:54:38.900Z,23.35
2023-10-10T12:55:38.901Z,23.33
2023-10-10T12:56:38.929Z,23.31
2023-10-10T12:57:38.902Z,23.20
2023-10-10T12:58:38.900Z,23.05
2023-10-10T12:59:38.931Z,22.86
2023-10-10T13:00:38.910Z,22.67
2023-10-10T13:01:38.949Z,22.57
2023-10-10T13:02:39.052Z,22.58
2023-10-10T13:03:38.996Z,22.62
2023-10-10T13:04:38.907Z,22.76
2023-10-10T13:05:38.976Z,22.73
2023-10-10T13:06:38.934Z,22.73
2023-10-10T13:07:38.923Z,22.90
2023-10-10T13:08:38.953Z,22.90
2023-10-10T13:09:38.908Z,23.01
2023-10-10T13:10:38.974Z,22.98
2023-10-10T13:11:38.943Z,23.10
2023-10-10T13:12:38.916Z,23.07
2023-10-10T13:13:38.913Z,23.07
2023-10-10T13:14:38.928Z,23.17
2023-10-10T13:15:38.960Z,23.16
2023-10-10T13:16:38.917Z,23.07
2023-10-10T13:17:38.951Z,23.01
2023-10-10T13:18:38.999Z,22.92
2023-10-10T13:19:38.920Z,22.92
2023-10-10T13:20:38.984Z,22.90
2023-10-10T13:21:38.933Z,22.88
2023-10-10T13:22:38.938Z,22.90
2023-10-10T13:23:39.013Z,22.88
2023-10-10T13:24:38.918Z,22.91
2023-10-10T13:25:38.961Z,22.91
2023-10-10T13:26:38.977Z,22.88
2023-10-10T13:27:38.922Z,22.79
2023-10-10T13:28:38.956Z,22.67
2023-10-10T13:29:38.966Z,22.73
2023-10-10T13:30:38.930Z,22.73
2023-10-10T13:31:38.966Z,22.80
2023-10-10T13:32:38.964Z,22.75
2023-10-10T13:33:38.961Z,22.76
2023-10-10T13:34:38.991Z,22.68
2023-10-10T13:35:38.979Z,22.75
2023-10-10T13:36:38.956Z,22.73
2023-10-10T13:37:38.925Z,22.64
2023-10-10T13:38:38.988Z,22.72
2023-10-10T13:39:38.930Z,22.72
2023-10-10T13:40:38.977Z,22.75
2023-10-10T13:41:38.973Z,22.65
2023-10-10T13:42:38.945Z,22.64
2023-10-10T13:43:38.938Z,22.54
2023-10-10T13:44:38.959Z,22.57
2023-10-10T13:45:38.951Z,22.57
2023-10-10T13:46:39.145Z,22.55
2023-10-10T13:47:38.976Z,22.58
2023-10-10T13:48:39.045Z,22.60
2023-10-10T13:49:38.931Z,22.64
2023-10-10T13:50:38.971Z,22.68
2023-10-10T13:51:38.936Z,22.64
2023-10-10T13:52:38.939Z,22.72
2023-10-10T13:53:38.979Z,22.73
2023-10-10T13:54:38.973Z,22.68
2023-10-10T13:55:38.935Z,22.67
2023-10-10T13:56:38.976Z,22.77
2023-10-10T13:57:38.947Z,22.68
2023-10-10T13:58:38.939Z,22.68
2023-10-10T13:59:39.112Z,22.61
2023-10-10T14:00:38.943Z,22.70
2023-10-10T14:01:39.007Z,22.62
2023-10-10T14:02:38.995Z,22.51
2023-10-10T14:03:39.173Z,22.49
2023-10-10T14:04:39.098Z,22.54
2023-10-10T14:05:38.959Z,22.51
2023-10-10T14:06:38.947Z,22.45
2023-10-10T14:07:38.942Z,22.39
2023-10-10T14:08:38.965Z,22.46
2023-10-10T14:09:55.676Z,22.43
2023-10-10T14:10:38.977Z,22.46
2023-10-10T14:11:38.972Z,22.45
2023-10-10T14:12:38.945Z,22.37
2023-10-10T14:13:38.938Z,22.45
2023-10-10T14:14:38.970Z,22.45
2023-10-10T14:15:38.949Z,22.42
2023-10-10T14:16:38.994Z,22.40
2023-10-10T14:17:38.999Z,22.58
2023-10-10T14:18:38.981Z,22.39
2023-10-10T14:19:38.940Z,22.43
2023-10-10T14:20:38.992Z,22.36
2023-10-10T14:21:38.939Z,22.36
2023-10-10T14:22:53.428Z,22.37
2023-10-10T14:23:38.958Z,22.36
2023-10-10T14:24:38.954Z,22.37
2023-10-10T14:25:38.944Z,22.27
2023-10-10T14:26:38.990Z,22.27
2023-10-10T14:27:38.942Z,22.21
2023-10-10T14:28:38.960Z,22.33
2023-10-10T14:29:38.961Z,22.17
2023-10-10T14:30:38.950Z,22.20
2023-10-10T14:31:38.948Z,22.17
2023-10-10T14:32:39.753Z,22.18
2023-10-10T14:33:39.062Z,22.05
2023-10-10T14:34:38.952Z,22.15
2023-10-10T14:35:39.015Z,22.02
2023-10-10T14:36:38.954Z,22.03
2023-10-10T14:38:39.002Z,22.05
2023-10-10T14:39:38.964Z,22.03
2023-10-10T14:40:38.957Z,22.09
2023-10-10T14:41:39.014Z,22.05
2023-10-10T14:42:40.707Z,22.06
2023-10-10T14:43:38.966Z,21.96
2023-10-10T14:44:38.986Z,21.92
2023-10-10T14:45:38.954Z,22.02
2023-10-10T14:46:39.005Z,22.02
2023-10-10T14:47:39.024Z,21.88
2023-10-10T14:48:40.949Z,21.91
2023-10-10T14:49:38.966Z,21.91
2023-10-10T14:50:38.999Z,21.94
2023-10-10T14:51:38.955Z,21.92
2023-10-10T14:52:38.990Z,21.91